createdAt,value
2018-09-30T00:01:56.841Z,99.90
2018-09-30T00:04:25.087Z,99.90
2018-09-30T00:06:53.331Z,99.90
2018-09-30T00:09:25.811Z,99.90
2018-09-30T00:11:54.039Z,99.90
2018-09-30T00:14:22.275Z,99.90
2018-09-30T00:16:50.480Z,99.90
2018-09-30T00:19:18.719Z,99.90
2018-09-30T00:21:46.963Z,99.90
2018-09-30T00:24:20.615Z,99.90
2018-09-30T00:26:54.216Z,99.90
2018-09-30T00:29:22.727Z,99.90
2018-09-30T00:31:50.963Z,99.90
2018-09-30T00:34:24.578Z,99.90
2018-09-30T00:36:53.382Z,99.90
2018-09-30T00:39:21.631Z,99.90
2018-09-30T00:41:49.892Z,99.90
2018-09-30T00:44:18.123Z,99.90
2018-09-30T00:46:49.383Z,99.90
2018-09-30T00:49:17.598Z,99.90
2018-09-30T00:51:45.820Z,99.90
2018-09-30T00:54:14.806Z,99.90
2018-09-30T00:56:43.179Z,99.90
2018-09-30T00:59:11.889Z,99.90
2018-09-30T01:01:40.118Z,99.90
2018-09-30T01:04:08.658Z,99.90
2018-09-30T01:06:36.901Z,99.90
2018-09-30T01:09:08.662Z,99.90
2018-09-30T01:11:36.976Z,99.90
2018-09-30T01:14:05.199Z,99.90
2018-09-30T01:16:33.458Z,99.90
2018-09-30T01:19:01.690Z,99.90
2018-09-30T01:21:29.939Z,99.90
2018-09-30T01:23:58.162Z,99.90
2018-09-30T01:26:26.395Z,99.90
2018-09-30T01:28:54.625Z,99.90
2018-09-30T01:31:22.914Z,99.90
2018-09-30T01:33:51.134Z,99.90
2018-09-30T01:36:19.350Z,99.90
2018-09-30T01:38:47.577Z,99.90
2018-09-30T01:41:15.833Z,99.90
2018-09-30T01:43:44.043Z,99.90
2018-09-30T01:46:12.410Z,99.90
2018-09-30T01:48:40.877Z,99.90
2018-09-30T01:51:09.106Z,99.90
2018-09-30T01:53:37.322Z,99.90
2018-09-30T01:56:05.558Z,99.90
2018-09-30T01:58:33.777Z,99.90
2018-09-30T02:01:02.008Z,99.90
2018-09-30T02:03:30.214Z,99.90
2018-09-30T02:05:58.446Z,99.90
2018-09-30T02:08:26.659Z,99.90
2018-09-30T02:10:54.883Z,99.90
2018-09-30T02:13:23.099Z,99.90
2018-09-30T02:15:51.327Z,99.90
2018-09-30T02:18:19.547Z,99.90
2018-09-30T02:20:47.773Z,99.90
2018-09-30T02:23:15.995Z,99.90
2018-09-30T02:25:44.219Z,99.90
2018-09-30T02:28:12.563Z,99.90
2018-09-30T02:30:40.954Z,99.90
2018-09-30T02:33:09.172Z,99.90
2018-09-30T02:35:37.399Z,99.90
2018-09-30T02:38:05.631Z,99.90
2018-09-30T02:40:33.859Z,99.90
2018-09-30T02:43:02.091Z,99.90
2018-09-30T02:45:30.306Z,99.90
2018-09-30T02:47:58.530Z,99.90
2018-09-30T02:50:26.763Z,99.90
2018-09-30T02:52:54.978Z,99.90
2018-09-30T02:55:23.199Z,99.90
2018-09-30T02:57:51.423Z,99.90
2018-09-30T03:00:19.630Z,99.90
2018-09-30T03:02:47.859Z,99.90
2018-09-30T03:05:16.071Z,99.90
2018-09-30T03:07:49.822Z,99.90
2018-09-30T03:10:18.039Z,99.90
2018-09-30T03:12:46.255Z,99.90
2018-09-30T03:15:14.677Z,99.90
2018-09-30T03:17:42.894Z,99.90
2018-09-30T03:20:11.146Z,99.90
2018-09-30T03:22:39.380Z,99.90
2018-09-30T03:25:07.604Z,99.90
2018-09-30T03:27:35.839Z,99.90
2018-09-30T03:30:04.139Z,99.90
2018-09-30T03:32:32.367Z,99.90
2018-09-30T03:35:00.583Z,99.90
2018-09-30T03:37:28.806Z,99.90
2018-09-30T03:39:57.018Z,99.90
2018-09-30T03:42:25.239Z,99.90
2018-09-30T03:44:53.442Z,99.90
2018-09-30T03:47:21.644Z,99.90
2018-09-30T03:49:49.844Z,99.90
2018-09-30T03:52:18.040Z,99.90
2018-09-30T03:54:46.234Z,99.90
2018-09-30T03:57:14.448Z,99.90
2018-09-30T03:59:42.649Z,99.90
2018-09-30T04:02:10.849Z,99.90
2018-09-30T04:04:39.051Z,99.90
2018-09-30T04:07:07.242Z,99.90
2018-09-30T04:09:35.503Z,99.90
2018-09-30T04:12:03.651Z,99.90
2018-09-30T04:14:32.075Z,99.90
2018-09-30T04:17:00.377Z,99.90
2018-09-30T04:19:28.741Z,99.90
2018-09-30T04:21:56.941Z,99.90
2018-09-30T04:24:25.152Z,99.90
2018-09-30T04:26:53.332Z,99.90
2018-09-30T04:29:21.539Z,99.90
2018-09-30T04:31:49.767Z,99.90
2018-09-30T04:34:18.027Z,99.90
2018-09-30T04:36:46.226Z,99.90
2018-09-30T04:39:14.434Z,99.90
2018-09-30T04:41:42.653Z,99.90
2018-09-30T04:44:10.859Z,99.90
2018-09-30T04:46:39.071Z,99.90
2018-09-30T04:49:07.275Z,99.90
2018-09-30T04:51:35.479Z,99.90
2018-09-30T04:54:03.720Z,99.90
2018-09-30T04:56:31.939Z,99.90
2018-09-30T04:59:00.151Z,99.90
2018-09-30T05:01:28.354Z,99.90
2018-09-30T05:03:56.555Z,99.90
2018-09-30T05:06:24.750Z,99.90
2018-09-30T05:08:52.955Z,99.90
2018-09-30T05:11:21.159Z,99.90
2018-09-30T05:13:49.369Z,99.90
2018-09-30T05:16:17.609Z,99.90
2018-09-30T05:18:45.804Z,99.90
2018-09-30T05:21:14.043Z,99.90
2018-09-30T05:23:42.251Z,99.90
2018-09-30T05:26:10.457Z,99.90
2018-09-30T05:28:38.671Z,99.90
2018-09-30T05:31:07.122Z,99.90
2018-09-30T05:33:35.311Z,99.90
2018-09-30T05:36:03.661Z,99.90
2018-09-30T05:38:31.927Z,99.90
2018-09-30T05:41:00.232Z,99.90
2018-09-30T05:43:28.583Z,99.90
2018-09-30T05:45:56.845Z,99.90
2018-09-30T05:48:25.089Z,99.90
2018-09-30T05:50:53.395Z,99.90
2018-09-30T05:53:21.788Z,99.90
2018-09-30T05:55:50.305Z,99.90
2018-09-30T05:58:18.573Z,99.90
2018-09-30T06:00:46.838Z,99.90
2018-09-30T06:03:15.203Z,99.90
2018-09-30T06:05:43.576Z,99.90
2018-09-30T06:08:11.856Z,99.90
2018-09-30T06:10:40.163Z,99.90
2018-09-30T06:13:08.429Z,99.90
2018-09-30T06:15:36.724Z,99.90
2018-09-30T06:18:05.004Z,99.90
2018-09-30T06:20:33.265Z,99.90
2018-09-30T06:23:01.524Z,99.90
2018-09-30T06:25:29.875Z,99.90
2018-09-30T06:27:58.201Z,99.90
2018-09-30T06:30:26.467Z,99.90
2018-09-30T06:32:54.743Z,99.90
2018-09-30T06:35:23.008Z,99.90
2018-09-30T06:37:51.260Z,99.90
2018-09-30T06:40:19.519Z,99.90
2018-09-30T06:42:47.769Z,99.90
2018-09-30T06:45:16.102Z,99.90
2018-09-30T06:47:44.435Z,99.90
2018-09-30T06:50:12.700Z,99.90
2018-09-30T06:52:40.959Z,99.90
2018-09-30T06:55:09.228Z,99.90
2018-09-30T06:57:37.504Z,99.90
2018-09-30T07:00:05.787Z,99.90
2018-09-30T07:02:34.063Z,99.90
2018-09-30T07:05:02.346Z,99.90
2018-09-30T07:07:30.584Z,99.90
2018-09-30T07:09:58.827Z,99.90
2018-09-30T07:12:27.097Z,99.90
2018-09-30T07:14:55.347Z,99.90
2018-09-30T07:17:23.701Z,99.90
2018-09-30T07:19:51.996Z,99.90
2018-09-30T07:22:20.380Z,99.90
2018-09-30T07:24:48.545Z,99.90
2018-09-30T07:27:16.811Z,99.90
2018-09-30T07:29:45.080Z,99.90
2018-09-30T07:32:13.412Z,99.90
2018-09-30T07:34:41.716Z,99.90
2018-09-30T07:37:09.991Z,99.90
2018-09-30T07:39:38.256Z,99.90
2018-09-30T07:42:06.537Z,99.90
2018-09-30T07:44:34.775Z,99.90
2018-09-30T07:47:03.041Z,99.90
2018-09-30T07:49:31.280Z,99.90
2018-09-30T07:51:59.548Z,99.90
2018-09-30T07:54:27.801Z,99.90
2018-09-30T07:56:56.077Z,99.90
2018-09-30T07:59:24.323Z,99.90
2018-09-30T08:01:52.571Z,99.90
2018-09-30T08:04:20.797Z,99.90
2018-09-30T08:06:49.112Z,99.90
2018-09-30T08:09:17.357Z,99.90
2018-09-30T08:11:45.636Z,99.90
2018-09-30T08:14:13.872Z,99.90
2018-09-30T08:16:42.191Z,99.90
2018-09-30T08:19:10.466Z,99.90
2018-09-30T08:21:38.726Z,99.90
2018-09-30T08:24:07.138Z,99.90
2018-09-30T08:26:35.300Z,99.90
2018-09-30T08:29:03.572Z,99.90
2018-09-30T08:31:31.820Z,99.00
2018-09-30T08:34:00.083Z,98.20
2018-09-30T08:36:28.414Z,97.00
2018-09-30T08:38:56.667Z,96.90
2018-09-30T08:41:25.377Z,96.60
2018-09-30T08:43:54.988Z,95.20
2018-09-30T08:46:23.168Z,95.20
2018-09-30T08:48:51.423Z,95.30
2018-09-30T08:51:19.747Z,94.50
2018-09-30T08:53:48.239Z,94.00
2018-09-30T08:56:16.718Z,93.50
2018-09-30T08:58:44.975Z,93.00
2018-09-30T09:01:13.222Z,93.00
2018-09-30T09:03:41.475Z,92.70
2018-09-30T09:06:09.727Z,92.40
2018-09-30T09:08:38.019Z,92.10
2018-09-30T09:11:06.387Z,91.40
2018-09-30T09:13:34.676Z,90.40
2018-09-30T09:16:03.832Z,91.40
2018-09-30T09:18:32.252Z,90.80
2018-09-30T09:21:02.513Z,90.20
2018-09-30T09:23:30.810Z,87.40
2018-09-30T09:25:59.031Z,88.80
2018-09-30T09:28:27.306Z,87.70
2018-09-30T09:30:55.672Z,89.20
2018-09-30T09:33:24.110Z,85.20
2018-09-30T09:35:52.384Z,85.30
2018-09-30T09:38:20.693Z,85.10
2018-09-30T09:40:49.047Z,85.90
2018-09-30T09:43:18.052Z,82.20
2018-09-30T09:45:47.116Z,79.00
2018-09-30T09:48:15.434Z,82.00
2018-09-30T09:50:51.361Z,79.80
2018-09-30T09:53:19.910Z,81.80
2018-09-30T09:55:48.162Z,79.40
2018-09-30T09:58:16.557Z,75.70
2018-09-30T10:00:45.694Z,79.00
2018-09-30T10:03:15.785Z,79.90
2018-09-30T10:05:44.126Z,73.80
2018-09-30T10:08:12.551Z,76.20
2018-09-30T10:10:40.831Z,75.60
2018-09-30T10:13:09.517Z,76.20
2018-09-30T10:15:37.816Z,74.90
2018-09-30T10:18:06.115Z,71.90
2018-09-30T10:20:34.436Z,71.80
2018-09-30T10:23:02.716Z,69.80
2018-09-30T10:25:32.360Z,70.20
2018-09-30T10:28:01.335Z,69.80
2018-09-30T10:30:29.728Z,69.20
2018-09-30T10:32:58.780Z,68.70
2018-09-30T10:35:27.067Z,70.60
2018-09-30T10:37:55.327Z,66.40
2018-09-30T10:40:23.719Z,68.20
2018-09-30T10:42:51.980Z,65.40
2018-09-30T10:45:20.257Z,66.10
2018-09-30T10:47:48.523Z,66.60
2018-09-30T10:50:17.035Z,68.10
2018-09-30T10:52:45.423Z,65.80
2018-09-30T10:55:13.683Z,65.60
2018-09-30T10:57:41.915Z,66.70
2018-09-30T11:00:10.171Z,64.70
2018-09-30T11:02:38.407Z,64.40
2018-09-30T11:05:06.679Z,64.70
2018-09-30T11:07:34.890Z,65.60
2018-09-30T11:10:03.168Z,62.90
2018-09-30T11:12:31.392Z,62.20
2018-09-30T11:14:59.615Z,63.70
2018-09-30T11:17:27.853Z,62.60
2018-09-30T11:19:56.111Z,65.40
2018-09-30T11:22:24.356Z,65.30
2018-09-30T11:24:52.619Z,65.20
2018-09-30T11:27:20.950Z,62.10
2018-09-30T11:29:49.300Z,61.90
2018-09-30T11:32:17.752Z,61.70
2018-09-30T11:34:45.976Z,64.60
2018-09-30T11:37:14.212Z,71.10
2018-09-30T11:39:42.562Z,66.70
2018-09-30T11:42:10.854Z,68.80
2018-09-30T11:44:39.334Z,69.00
2018-09-30T11:47:09.756Z,69.70
2018-09-30T11:49:38.081Z,67.90
2018-09-30T11:52:06.427Z,67.50
2018-09-30T11:54:36.073Z,68.30
2018-09-30T11:57:04.450Z,69.40
2018-09-30T11:59:32.773Z,70.30
2018-09-30T12:02:01.069Z,71.50
2018-09-30T12:04:29.417Z,72.80
2018-09-30T12:06:58.955Z,69.90
2018-09-30T12:09:27.258Z,67.70
2018-09-30T12:11:55.619Z,71.00
2018-09-30T12:14:24.009Z,68.00
2018-09-30T12:16:52.329Z,70.60
2018-09-30T12:19:20.970Z,68.50
2018-09-30T12:21:49.363Z,71.40
2018-09-30T12:24:17.727Z,68.90
2018-09-30T12:26:46.098Z,67.70
2018-09-30T12:29:14.424Z,71.50
2018-09-30T12:31:42.764Z,70.00
2018-09-30T12:34:11.328Z,69.00
2018-09-30T12:36:39.736Z,71.20
2018-09-30T12:39:09.019Z,71.20
2018-09-30T12:41:37.381Z,70.30
2018-09-30T12:44:05.699Z,71.30
2018-09-30T12:46:34.005Z,70.80
2018-09-30T12:49:02.409Z,70.50
2018-09-30T12:51:30.824Z,71.40
2018-09-30T12:53:59.157Z,71.40
2018-09-30T12:56:27.479Z,71.90
2018-09-30T12:58:55.880Z,72.00
2018-09-30T13:01:24.163Z,72.80
2018-09-30T13:03:52.479Z,71.60
2018-09-30T13:06:20.768Z,72.40
2018-09-30T13:08:49.129Z,72.70
2018-09-30T13:11:17.482Z,73.20
2018-09-30T13:13:45.795Z,74.00
2018-09-30T13:16:14.088Z,74.00
2018-09-30T13:18:42.385Z,73.70
2018-09-30T13:21:10.656Z,74.60
2018-09-30T13:23:38.932Z,74.00
2018-09-30T13:26:07.215Z,73.20
2018-09-30T13:28:35.524Z,74.30
2018-09-30T13:31:03.800Z,73.50
2018-09-30T13:33:32.109Z,73.60
2018-09-30T13:36:00.343Z,73.10
2018-09-30T13:38:28.620Z,74.60
2018-09-30T13:40:57.041Z,74.70
2018-09-30T13:43:25.212Z,75.30
2018-09-30T13:45:53.500Z,76.20
2018-09-30T13:48:21.768Z,74.20
2018-09-30T13:50:50.044Z,75.20
2018-09-30T13:53:18.364Z,75.40
2018-09-30T13:55:46.614Z,74.20
2018-09-30T13:58:14.923Z,74.20
2018-09-30T14:00:43.223Z,75.00
2018-09-30T14:03:11.504Z,75.40
2018-09-30T14:05:39.780Z,75.20
2018-09-30T14:08:08.052Z,74.40
2018-09-30T14:10:36.301Z,75.30
2018-09-30T14:13:04.564Z,75.70
2018-09-30T14:15:32.844Z,75.30
2018-09-30T14:18:01.109Z,76.00
2018-09-30T14:20:29.372Z,77.80
2018-09-30T14:22:57.652Z,77.80
2018-09-30T14:25:25.938Z,76.70
2018-09-30T14:27:54.225Z,77.70
2018-09-30T14:30:22.483Z,77.50
2018-09-30T14:32:50.808Z,78.10
2018-09-30T14:35:19.068Z,77.90
2018-09-30T14:37:47.360Z,78.50
2018-09-30T14:40:15.648Z,78.40
2018-09-30T14:42:43.936Z,78.50
2018-09-30T14:45:12.224Z,76.10
2018-09-30T14:47:40.507Z,76.90
2018-09-30T14:50:08.804Z,77.90
2018-09-30T14:52:37.092Z,79.40
2018-09-30T14:55:05.410Z,77.50
2018-09-30T14:57:33.699Z,75.20
2018-09-30T15:00:01.964Z,73.50
2018-09-30T15:02:30.280Z,73.70
2018-09-30T15:04:58.629Z,74.80
2018-09-30T15:07:27.282Z,75.10
2018-09-30T15:09:55.702Z,77.20
2018-09-30T15:12:23.968Z,78.90
2018-09-30T15:14:52.277Z,80.00
2018-09-30T15:17:20.588Z,81.30
2018-09-30T15:19:48.844Z,82.00
2018-09-30T15:22:17.120Z,83.00
2018-09-30T15:24:45.394Z,84.30
2018-09-30T15:27:13.669Z,85.60
2018-09-30T15:29:42.020Z,86.50
2018-09-30T15:32:10.268Z,87.20
2018-09-30T15:34:38.544Z,87.40
2018-09-30T15:37:07.615Z,88.00
2018-09-30T15:39:35.944Z,88.30
2018-09-30T15:42:10.675Z,88.90
2018-09-30T15:44:38.964Z,89.80
2018-09-30T15:47:07.212Z,90.60
2018-09-30T15:49:35.480Z,90.90
2018-09-30T15:52:03.741Z,92.20
2018-09-30T15:54:32.064Z,93.90
2018-09-30T15:57:01.877Z,95.60
2018-09-30T15:59:30.182Z,97.70
2018-09-30T16:01:58.446Z,99.10
2018-09-30T16:04:26.736Z,99.90
2018-09-30T16:06:54.975Z,98.80
2018-09-30T16:09:23.255Z,98.40
2018-09-30T16:11:51.512Z,97.90
2018-09-30T16:14:19.774Z,97.30
2018-09-30T16:16:48.007Z,97.50
2018-09-30T16:19:16.235Z,95.60
2018-09-30T16:21:44.481Z,95.10
2018-09-30T16:24:12.744Z,94.60
2018-09-30T16:26:41.034Z,94.80
2018-09-30T16:29:09.271Z,95.50
2018-09-30T16:31:37.503Z,95.10
2018-09-30T16:34:05.831Z,96.00
2018-09-30T16:36:34.083Z,99.00
2018-09-30T16:39:02.316Z,99.70
2018-09-30T16:41:30.653Z,99.00
2018-09-30T16:43:58.839Z,99.50
2018-09-30T16:46:27.085Z,98.00
2018-09-30T16:48:55.311Z,97.70
2018-09-30T16:51:23.547Z,97.90
2018-09-30T16:53:51.773Z,99.90
2018-09-30T16:56:19.999Z,99.90
2018-09-30T16:58:48.241Z,99.90
2018-09-30T17:01:16.492Z,99.90
2018-09-30T17:03:44.732Z,99.90
2018-09-30T17:06:12.980Z,99.90
2018-09-30T17:08:41.197Z,99.90
2018-09-30T17:11:09.452Z,99.90
2018-09-30T17:13:37.704Z,99.90
2018-09-30T17:16:06.026Z,99.90
2018-09-30T17:18:34.216Z,99.90
2018-09-30T17:21:02.464Z,99.90
2018-09-30T17:23:31.071Z,99.90
2018-09-30T17:25:59.289Z,99.90
2018-09-30T17:28:27.516Z,99.90
2018-09-30T17:30:55.751Z,99.90
2018-09-30T17:33:23.967Z,99.90
2018-09-30T17:35:52.179Z,99.90
2018-09-30T17:38:20.378Z,99.90
2018-09-30T17:40:48.615Z,99.90
2018-09-30T17:43:16.823Z,99.90
2018-09-30T17:45:45.029Z,99.90
2018-09-30T17:48:13.233Z,99.90
2018-09-30T17:50:41.442Z,99.90
2018-09-30T17:53:09.631Z,99.90
2018-09-30T17:55:37.846Z,99.90
2018-09-30T17:58:06.157Z,99.90
2018-09-30T18:00:34.295Z,99.90
2018-09-30T18:03:02.663Z,99.90
2018-09-30T18:05:30.940Z,99.90
2018-09-30T18:07:59.154Z,99.90
2018-09-30T18:10:27.371Z,99.90
2018-09-30T18:12:55.570Z,99.90
2018-09-30T18:15:23.803Z,99.90
2018-09-30T18:17:52.019Z,99.90
2018-09-30T18:20:20.218Z,99.90
2018-09-30T18:22:48.436Z,99.90
2018-09-30T18:25:16.644Z,99.90
2018-09-30T18:27:44.854Z,99.90
2018-09-30T18:30:13.058Z,99.90
2018-09-30T18:32:41.287Z,99.90
2018-09-30T18:35:09.483Z,99.90
2018-09-30T18:37:37.727Z,99.90
2018-09-30T18:40:06.077Z,99.90
2018-09-30T18:42:34.291Z,99.90
2018-09-30T18:45:02.955Z,99.90
2018-09-30T18:47:31.182Z,99.90
2018-09-30T18:49:59.415Z,99.90
2018-09-30T18:52:27.631Z,99.90
2018-09-30T18:54:55.831Z,99.90
2018-09-30T18:57:24.031Z,99.90
2018-09-30T18:59:52.230Z,99.90
2018-09-30T19:02:20.435Z,99.90
2018-09-30T19:04:48.636Z,99.90
2018-09-30T19:07:16.827Z,99.90
2018-09-30T19:09:45.055Z,99.90
2018-09-30T19:12:13.397Z,99.90
2018-09-30T19:14:41.466Z,99.90
2018-09-30T19:17:09.674Z,99.90
2018-09-30T19:19:37.879Z,99.90
2018-09-30T19:22:06.546Z,99.90
2018-09-30T19:24:34.973Z,99.90
2018-09-30T19:27:03.232Z,99.90
2018-09-30T19:29:31.435Z,99.90
2018-09-30T19:31:59.639Z,99.90
2018-09-30T19:34:28.084Z,99.90
2018-09-30T19:36:56.283Z,99.90
2018-09-30T19:39:24.541Z,99.90
2018-09-30T19:41:52.887Z,99.90
2018-09-30T19:44:21.011Z,99.90
2018-09-30T19:46:49.226Z,99.90
2018-09-30T19:49:17.451Z,99.90
2018-09-30T19:51:45.668Z,99.90
2018-09-30T19:54:13.898Z,99.90
2018-09-30T19:56:42.115Z,99.90
2018-09-30T19:59:10.446Z,99.90
2018-09-30T20:01:38.660Z,99.90
2018-09-30T20:04:06.909Z,99.90
2018-09-30T20:06:35.179Z,99.90
2018-09-30T20:09:03.593Z,99.90
2018-09-30T20:11:31.767Z,99.90
2018-09-30T20:13:59.996Z,99.90
2018-09-30T20:16:28.214Z,99.90
2018-09-30T20:18:56.460Z,99.90
2018-09-30T20:21:24.695Z,99.90
2018-09-30T20:23:52.917Z,99.90
2018-09-30T20:26:21.144Z,99.90
2018-09-30T20:28:49.371Z,99.90
2018-09-30T20:31:17.592Z,99.90
2018-09-30T20:33:45.830Z,99.90
2018-09-30T20:36:14.047Z,99.90
2018-09-30T20:38:42.282Z,99.90
2018-09-30T20:41:10.668Z,99.90
2018-09-30T20:43:38.921Z,99.90
2018-09-30T20:46:07.172Z,99.90
2018-09-30T20:48:35.576Z,99.90
2018-09-30T20:51:03.775Z,99.90
2018-09-30T20:53:31.979Z,99.90
2018-09-30T20:56:00.203Z,99.90
2018-09-30T20:58:28.395Z,99.90
2018-09-30T21:00:56.591Z,99.90
2018-09-30T21:03:24.807Z,99.90
2018-09-30T21:06:31.377Z,99.90
2018-09-30T21:08:59.619Z,99.90
2018-09-30T21:11:27.851Z,99.90
2018-09-30T21:13:56.324Z,99.90
2018-09-30T21:16:24.599Z,99.90
2018-09-30T21:18:52.811Z,99.90
2018-09-30T21:21:21.824Z,99.90
2018-09-30T21:23:50.015Z,99.90
2018-09-30T21:26:18.217Z,99.90
2018-09-30T21:28:46.427Z,99.90
2018-09-30T21:31:14.633Z,99.90
2018-09-30T21:33:42.835Z,99.90
2018-09-30T21:36:11.093Z,99.90
2018-09-30T21:38:39.295Z,99.90
2018-09-30T21:41:07.535Z,99.90
2018-09-30T21:43:35.754Z,99.90
2018-09-30T21:46:03.975Z,99.90
2018-09-30T21:48:32.215Z,99.90
2018-09-30T21:51:00.449Z,99.90
2018-09-30T21:53:28.670Z,99.90
2018-09-30T21:55:56.898Z,99.90
2018-09-30T21:58:25.120Z,99.90
2018-09-30T22:00:59.414Z,99.90
2018-09-30T22:03:27.998Z,99.90
2018-09-30T22:05:56.231Z,99.90
2018-09-30T22:08:24.455Z,99.90
2018-09-30T22:10:52.690Z,99.90
2018-09-30T22:13:20.902Z,99.90
2018-09-30T22:15:49.213Z,99.90
2018-09-30T22:18:17.502Z,99.90
2018-09-30T22:20:45.766Z,99.90
2018-09-30T22:23:14.147Z,99.90
2018-09-30T22:25:42.401Z,99.90
2018-09-30T22:28:10.622Z,99.90
2018-09-30T22:30:38.853Z,99.90
2018-09-30T22:33:07.087Z,99.90
2018-09-30T22:35:35.314Z,99.90
2018-09-30T22:38:03.531Z,99.90
2018-09-30T22:40:31.747Z,99.90
2018-09-30T22:42:59.949Z,99.90
2018-09-30T22:45:28.162Z,99.90
2018-09-30T22:47:56.363Z,99.90
2018-09-30T22:50:24.584Z,99.90
2018-09-30T22:52:52.797Z,99.90
2018-09-30T22:55:21.014Z,99.90
2018-09-30T22:57:49.215Z,99.90
2018-09-30T23:00:17.420Z,99.90
2018-09-30T23:02:45.642Z,99.90
2018-09-30T23:05:13.879Z,99.90
2018-09-30T23:07:42.091Z,99.90
2018-09-30T23:10:11.661Z,99.90
2018-09-30T23:12:39.899Z,99.90
2018-09-30T23:15:08.123Z,99.90
2018-09-30T23:17:36.353Z,99.90
2018-09-30T23:20:04.630Z,99.90
2018-09-30T23:22:32.847Z,99.90
2018-09-30T23:25:01.050Z,99.90
2018-09-30T23:27:29.268Z,99.90
2018-09-30T23:29:57.475Z,99.90
2018-09-30T23:32:25.699Z,99.90
2018-09-30T23:34:53.911Z,99.90
2018-09-30T23:37:22.133Z,99.90
2018-09-30T23:39:50.334Z,99.90
2018-09-30T23:42:18.609Z,99.90
2018-09-30T23:44:46.838Z,99.90
2018-09-30T23:47:15.078Z,99.90
2018-09-30T23:49:43.334Z,99.90
2018-09-30T23:52:11.575Z,99.90
2018-09-30T23:54:39.804Z,99.90
2018-09-30T23:57:08.055Z,99.90
2018-09-30T23:59:36.283Z,99.90
